createdAt,value
2023-04-21T00:00:08.939Z,40.33
2023-04-21T00:02:39.900Z,40.83
2023-04-21T00:05:10.701Z,43.78
2023-04-21T00:07:38.352Z,41.03
2023-04-21T00:10:09.344Z,41.22
2023-04-21T00:12:36.585Z,40.78
2023-04-21T00:15:06.322Z,39.88
2023-04-21T00:17:33.470Z,38.03
2023-04-21T00:20:00.744Z,38.25
2023-04-21T00:22:27.869Z,38.10
2023-04-21T00:24:54.997Z,35.78
2023-04-21T00:27:22.140Z,35.95
2023-04-21T00:29:49.466Z,35.88
2023-04-21T00:32:16.684Z,34.90
2023-04-21T00:34:43.873Z,37.42
2023-04-21T00:37:11.147Z,35.65
2023-04-21T00:39:38.310Z,34.30
2023-04-21T00:42:05.496Z,33.15
2023-04-21T00:44:32.658Z,35.53
2023-04-21T00:46:59.926Z,33.88
2023-04-21T00:49:27.442Z,35.03
2023-04-21T00:51:55.744Z,37.20
2023-04-21T00:54:25.719Z,36.33
2023-04-21T00:56:52.883Z,35.00
2023-04-21T00:59:20.138Z,37.13
2023-04-21T01:01:47.559Z,34.67
2023-04-21T01:04:14.820Z,34.63
2023-04-21T01:06:42.912Z,37.47
2023-04-21T01:09:10.105Z,37.67
2023-04-21T01:11:37.508Z,36.50
2023-04-21T01:14:05.299Z,34.88
2023-04-21T01:16:33.745Z,37.35
2023-04-21T01:19:05.717Z,37.72
2023-04-21T01:21:42.857Z,37.80
2023-04-21T01:24:10.297Z,36.10
2023-04-21T01:26:37.436Z,35.97
2023-04-21T01:29:04.579Z,36.17
2023-04-21T01:31:31.801Z,34.88
2023-04-21T01:33:59.051Z,33.33
2023-04-21T01:36:26.412Z,33.45
2023-04-21T01:38:53.681Z,36.45
2023-04-21T01:41:20.925Z,36.67
2023-04-21T01:43:48.090Z,39.08
2023-04-21T01:46:15.392Z,36.97
2023-04-21T01:48:42.611Z,36.13
2023-04-21T01:51:09.791Z,36.33
2023-04-21T01:53:36.936Z,33.97
2023-04-21T01:56:04.269Z,34.08
2023-04-21T01:58:31.470Z,33.58
2023-04-21T02:00:58.635Z,36.10
2023-04-21T02:03:25.992Z,37.78
2023-04-21T02:05:53.309Z,40.33
2023-04-21T02:08:20.521Z,39.78
2023-04-21T02:10:47.664Z,44.53
2023-04-21T02:13:14.792Z,43.92
2023-04-21T02:15:42.107Z,42.90
2023-04-21T02:18:09.442Z,42.00
2023-04-21T02:20:36.600Z,41.55
2023-04-21T02:23:03.951Z,43.33
2023-04-21T02:25:31.207Z,40.88
2023-04-21T02:27:58.336Z,38.75
2023-04-21T02:30:25.480Z,43.92
2023-04-21T02:32:52.704Z,45.25
2023-04-21T02:35:19.982Z,40.47
2023-04-21T02:37:47.113Z,40.67
2023-04-21T02:40:14.332Z,41.53
2023-04-21T02:42:41.494Z,40.80
2023-04-21T02:45:09.060Z,42.88
2023-04-21T02:47:36.250Z,41.55
2023-04-21T02:50:04.262Z,40.00
2023-04-21T02:52:31.398Z,42.63
2023-04-21T02:54:58.537Z,39.58
2023-04-21T02:57:25.747Z,40.50
2023-04-21T02:59:52.891Z,38.28
2023-04-21T03:02:20.046Z,37.83
2023-04-21T03:04:47.211Z,38.65
2023-04-21T03:07:14.661Z,39.80
2023-04-21T03:09:42.301Z,42.20
2023-04-21T03:12:09.466Z,37.67
2023-04-21T03:14:36.686Z,40.80
2023-04-21T03:17:03.833Z,40.33
2023-04-21T03:19:31.210Z,38.67
2023-04-21T03:22:00.512Z,39.20
2023-04-21T03:24:28.024Z,43.05
2023-04-21T03:26:56.585Z,42.10
2023-04-21T03:29:23.945Z,41.85
2023-04-21T03:31:51.257Z,41.20
2023-04-21T03:34:18.428Z,41.83
2023-04-21T03:36:45.809Z,40.97
2023-04-21T03:39:20.005Z,40.13
2023-04-21T03:41:48.069Z,37.75
2023-04-21T03:44:15.315Z,36.50
2023-04-21T03:46:42.428Z,37.55
2023-04-21T03:49:09.735Z,41.45
2023-04-21T03:51:36.869Z,41.88
2023-04-21T03:54:04.123Z,44.67
2023-04-21T03:56:31.649Z,40.40
2023-04-21T03:58:58.881Z,42.35
2023-04-21T04:01:25.999Z,44.40
2023-04-21T04:03:53.332Z,42.17
2023-04-21T04:06:20.584Z,43.83
2023-04-21T04:08:47.871Z,44.65
2023-04-21T04:11:15.175Z,45.50
2023-04-21T04:13:42.343Z,43.47
2023-04-21T04:16:09.520Z,43.35
2023-04-21T04:18:36.697Z,45.15
2023-04-21T04:21:07.701Z,45.63
2023-04-21T04:23:35.438Z,45.30
2023-04-21T04:26:05.606Z,42.22
2023-04-21T04:28:33.777Z,39.13
2023-04-21T04:31:01.088Z,39.13
2023-04-21T04:33:28.326Z,38.85
2023-04-21T04:35:55.460Z,37.58
2023-04-21T04:38:23.155Z,36.35
2023-04-21T04:40:58.006Z,39.00
2023-04-21T04:43:25.605Z,39.42
2023-04-21T04:45:53.343Z,37.50
2023-04-21T04:48:20.603Z,38.22
2023-04-21T04:50:47.773Z,37.47
2023-04-21T04:53:15.186Z,36.92
2023-04-21T04:55:42.301Z,38.22
2023-04-21T04:58:09.450Z,36.90
2023-04-21T05:00:37.105Z,36.47
2023-04-21T05:03:04.477Z,35.28
2023-04-21T05:05:31.930Z,37.28
2023-04-21T05:07:59.261Z,39.15
2023-04-21T05:10:26.451Z,38.50
2023-04-21T05:12:53.622Z,37.63
2023-04-21T05:15:20.888Z,38.92
2023-04-21T05:17:48.048Z,39.15
2023-04-21T05:20:15.312Z,37.47
2023-04-21T05:22:42.569Z,35.72
2023-04-21T05:25:12.241Z,34.75
2023-04-21T05:27:39.400Z,32.50
2023-04-21T05:30:06.784Z,33.03
2023-04-21T05:32:34.125Z,33.22
2023-04-21T05:35:01.424Z,31.30
2023-04-21T05:37:28.627Z,32.47
2023-04-21T05:39:55.815Z,32.03
2023-04-21T05:42:23.042Z,33.13
2023-04-21T05:44:50.942Z,32.50
2023-04-21T05:47:18.051Z,32.88
2023-04-21T05:49:50.249Z,30.90
2023-04-21T05:52:17.981Z,29.73
2023-04-21T05:54:45.274Z,30.75
2023-04-21T05:57:12.482Z,30.77
2023-04-21T05:59:39.720Z,29.75
2023-04-21T06:02:06.949Z,29.70
2023-04-21T06:04:34.452Z,28.95
2023-04-21T06:07:09.100Z,28.50
2023-04-21T06:09:36.348Z,28.13
2023-04-21T06:12:03.939Z,27.35
2023-04-21T06:14:31.145Z,26.63
2023-04-21T06:16:58.477Z,25.17
2023-04-21T06:19:25.965Z,24.10
2023-04-21T06:21:53.148Z,24.45
2023-04-21T06:24:25.715Z,22.98
2023-04-21T06:26:53.632Z,20.80
2023-04-21T06:29:21.123Z,19.08
2023-04-21T06:31:48.640Z,18.55
2023-04-21T06:34:16.257Z,17.75
2023-04-21T06:36:43.429Z,18.48
2023-04-21T06:39:10.921Z,18.90
2023-04-21T06:41:38.079Z,17.60
2023-04-21T06:44:05.311Z,17.65
2023-04-21T06:46:32.494Z,18.85
2023-04-21T06:48:59.702Z,17.77
2023-04-21T06:51:26.847Z,17.75
2023-04-21T06:53:54.002Z,16.90
2023-04-21T06:56:21.275Z,17.23
2023-04-21T06:58:48.507Z,16.63
2023-04-21T07:01:15.783Z,16.85
2023-04-21T07:03:43.099Z,15.07
2023-04-21T07:06:10.886Z,17.17
2023-04-21T07:08:38.151Z,15.07
2023-04-21T07:11:05.471Z,16.00
2023-04-21T07:13:32.628Z,14.75
2023-04-21T07:15:59.806Z,14.70
2023-04-21T07:18:27.204Z,15.85
2023-04-21T07:20:54.354Z,15.35
2023-04-21T07:23:21.502Z,15.25
2023-04-21T07:25:48.764Z,14.52
2023-04-21T07:28:16.558Z,14.25
2023-04-21T07:30:43.846Z,13.35
2023-04-21T07:33:11.099Z,13.73
2023-04-21T07:35:38.854Z,13.00
2023-04-21T07:38:06.208Z,13.70
2023-04-21T07:40:33.373Z,14.07
2023-04-21T07:43:00.560Z,13.77
2023-04-21T07:45:27.804Z,13.13
2023-04-21T07:47:55.095Z,12.65
2023-04-21T07:50:22.298Z,11.55
2023-04-21T07:52:49.459Z,11.02
2023-04-21T07:55:16.694Z,11.35
2023-04-21T07:57:44.090Z,11.45
2023-04-21T08:00:11.677Z,11.00
2023-04-21T08:02:38.981Z,9.68
2023-04-21T08:05:06.469Z,8.45
2023-04-21T08:07:33.926Z,8.73
2023-04-21T08:10:01.156Z,8.95
2023-04-21T08:12:28.335Z,8.95
2023-04-21T08:14:58.403Z,8.48
2023-04-21T08:17:25.860Z,8.82
2023-04-21T08:19:53.215Z,8.30
2023-04-21T08:22:20.572Z,7.70
2023-04-21T08:24:47.899Z,8.20
2023-04-21T08:27:15.008Z,7.82
2023-04-21T08:29:42.136Z,8.10
2023-04-21T08:32:09.342Z,7.57
2023-04-21T08:34:36.617Z,6.88
2023-04-21T08:37:03.764Z,7.03
2023-04-21T08:39:31.060Z,7.00
2023-04-21T08:41:59.556Z,6.90
2023-04-21T08:44:27.099Z,7.13
2023-04-21T08:46:56.678Z,6.32
2023-04-21T08:49:25.324Z,6.57
2023-04-21T08:51:52.458Z,6.20
2023-04-21T08:54:19.663Z,6.20
2023-04-21T08:56:48.372Z,5.57
2023-04-21T08:59:15.701Z,4.53
2023-04-21T09:02:02.001Z,5.57
2023-04-21T09:04:31.287Z,4.70
2023-04-21T09:06:58.821Z,5.50
2023-04-21T09:09:26.439Z,5.53
2023-04-21T09:11:57.344Z,4.88
2023-04-21T09:14:29.951Z,5.18
2023-04-21T09:17:04.363Z,4.33
2023-04-21T09:19:34.529Z,4.93
2023-04-21T09:22:02.038Z,4.57
2023-04-21T09:24:29.213Z,4.68
2023-04-21T09:26:56.479Z,4.97
2023-04-21T09:29:24.498Z,4.70
2023-04-21T09:31:52.240Z,4.90
2023-04-21T09:34:26.190Z,3.90
2023-04-21T09:37:03.567Z,3.75
2023-04-21T09:39:43.286Z,4.05
2023-04-21T09:42:18.724Z,3.90
2023-04-21T09:44:52.397Z,3.72
2023-04-21T09:47:24.205Z,4.45
2023-04-21T09:49:52.705Z,3.67
2023-04-21T09:52:23.236Z,3.38
2023-04-21T09:54:51.963Z,3.45
2023-04-21T09:57:25.394Z,3.17
2023-04-21T10:02:20.714Z,3.38
2023-04-21T10:04:48.279Z,3.53
2023-04-21T10:07:15.558Z,3.55
2023-04-21T10:09:46.309Z,3.42
2023-04-21T10:12:14.656Z,2.92
2023-04-21T10:14:42.081Z,2.92
2023-04-21T10:17:12.823Z,3.00
2023-04-21T10:19:48.897Z,2.80
2023-04-21T10:22:16.118Z,3.00
2023-04-21T10:24:44.522Z,2.58
2023-04-21T10:27:12.661Z,2.50
2023-04-21T10:29:55.430Z,2.30
2023-04-21T10:32:42.704Z,3.15
2023-04-21T10:35:11.177Z,2.33
2023-04-21T10:37:38.387Z,2.15
2023-04-21T10:40:09.435Z,2.70
2023-04-21T10:42:37.126Z,2.20
2023-04-21T10:45:08.751Z,2.55
2023-04-21T10:47:49.059Z,2.20
2023-04-21T10:50:17.838Z,2.40
2023-04-21T10:52:46.172Z,2.58
2023-04-21T10:55:15.780Z,2.40
2023-04-21T10:57:44.340Z,2.45
2023-04-21T11:00:12.645Z,2.38
2023-04-21T11:02:44.663Z,2.75
2023-04-21T11:05:12.440Z,2.80
2023-04-21T11:07:39.792Z,2.90
2023-04-21T11:10:08.231Z,3.10
2023-04-21T11:12:38.298Z,3.10
2023-04-21T11:15:07.506Z,2.30
2023-04-21T11:17:34.808Z,2.60
2023-04-21T11:20:02.785Z,2.58
2023-04-21T11:22:29.959Z,2.78
2023-04-21T11:24:58.571Z,2.47
2023-04-21T11:27:29.998Z,2.47
2023-04-21T11:29:57.695Z,2.65
2023-04-21T11:32:25.392Z,2.22
2023-04-21T11:34:52.973Z,2.45
2023-04-21T11:37:27.798Z,2.20
2023-04-21T11:39:59.828Z,2.42
2023-04-21T11:42:27.256Z,2.70
2023-04-21T11:44:56.632Z,2.20
2023-04-21T11:47:25.270Z,2.30
2023-04-21T11:49:56.620Z,2.15
2023-04-21T11:52:28.002Z,1.90
2023-04-21T11:54:56.246Z,2.20
2023-04-21T11:57:24.386Z,2.65
2023-04-21T11:59:52.350Z,2.05
2023-04-21T12:02:26.864Z,2.38
2023-04-21T12:04:57.941Z,2.20
2023-04-21T12:07:25.378Z,1.63
2023-04-21T12:09:52.981Z,2.13
2023-04-21T12:12:20.171Z,1.63
2023-04-21T12:14:47.899Z,2.28
2023-04-21T12:17:15.026Z,2.10
2023-04-21T12:19:43.169Z,2.10
2023-04-21T12:22:10.364Z,2.42
2023-04-21T12:24:38.311Z,2.20
2023-04-21T12:27:06.383Z,2.13
2023-04-21T12:29:38.512Z,2.10
2023-04-21T12:32:07.064Z,1.85
2023-04-21T12:34:34.584Z,2.03
2023-04-21T12:37:01.842Z,2.10
2023-04-21T12:39:30.811Z,2.00
2023-04-21T12:41:58.461Z,2.20
2023-04-21T12:44:25.938Z,2.60
2023-04-21T12:46:53.450Z,1.88
2023-04-21T12:49:20.813Z,2.22
2023-04-21T12:51:48.073Z,1.67
2023-04-21T12:54:15.729Z,2.10
2023-04-21T12:56:43.462Z,2.00
2023-04-21T12:59:11.574Z,1.98
2023-04-21T13:01:39.574Z,2.05
2023-04-21T13:04:07.619Z,1.90
2023-04-21T13:06:35.104Z,1.83
2023-04-21T13:09:03.158Z,2.03
2023-04-21T13:11:30.289Z,1.98
2023-04-21T13:13:58.125Z,2.33
2023-04-21T13:16:26.737Z,2.05
2023-04-21T13:18:55.036Z,1.92
2023-04-21T13:21:22.269Z,2.47
2023-04-21T13:23:49.473Z,1.95
2023-04-21T13:26:18.719Z,1.98
2023-04-21T13:28:46.430Z,2.40
2023-04-21T13:31:14.628Z,2.17
2023-04-21T13:33:42.741Z,2.30
2023-04-21T13:36:12.888Z,7.32
2023-04-21T13:38:40.985Z,5.20
2023-04-21T13:41:08.627Z,7.57
2023-04-21T13:43:36.264Z,2.42
2023-04-21T13:46:03.575Z,10.52
2023-04-21T13:48:30.895Z,15.80
2023-04-21T13:50:58.088Z,17.90
2023-04-21T13:53:25.402Z,4.13
2023-04-21T13:55:54.650Z,8.82
2023-04-21T13:58:22.133Z,19.83
2023-04-21T14:00:49.363Z,7.00
2023-04-21T14:03:16.861Z,10.05
2023-04-21T14:05:44.397Z,3.40
2023-04-21T14:08:11.736Z,7.57
2023-04-21T14:10:38.884Z,5.55
2023-04-21T14:13:06.374Z,17.48
2023-04-21T14:15:33.548Z,7.40
2023-04-21T14:18:01.051Z,3.05
2023-04-21T14:20:28.403Z,4.30
2023-04-21T14:22:55.651Z,2.38
2023-04-21T14:25:22.934Z,2.25
2023-04-21T14:27:50.191Z,2.28
2023-04-21T14:30:17.430Z,5.55
2023-04-21T14:32:45.868Z,3.10
2023-04-21T14:35:13.550Z,2.78
2023-04-21T14:37:41.313Z,10.55
2023-04-21T14:40:09.062Z,4.63
2023-04-21T14:42:36.413Z,2.60
2023-04-21T14:45:03.701Z,2.60
2023-04-21T14:47:31.160Z,2.28
2023-04-21T14:49:58.359Z,2.13
2023-04-21T14:52:26.978Z,3.28
2023-04-21T14:54:54.334Z,7.80
2023-04-21T14:57:24.101Z,4.57
2023-04-21T14:59:52.130Z,2.38
2023-04-21T15:02:20.139Z,2.22
2023-04-21T15:04:47.740Z,2.35
2023-04-21T15:07:17.173Z,2.38
2023-04-21T15:09:48.515Z,2.50
2023-04-21T15:12:16.148Z,2.50
2023-04-21T15:14:43.262Z,2.10
2023-04-21T15:17:10.582Z,2.20
2023-04-21T15:19:37.990Z,2.90
2023-04-21T15:22:05.445Z,2.05
2023-04-21T15:24:32.595Z,2.50
2023-04-21T15:26:59.968Z,2.67
2023-04-21T15:29:27.110Z,2.60
2023-04-21T15:31:54.251Z,2.10
2023-04-21T15:34:21.446Z,2.05
2023-04-21T15:36:48.711Z,2.03
2023-04-21T15:39:16.222Z,2.92
2023-04-21T15:41:43.496Z,2.70
2023-04-21T15:44:11.424Z,2.30
2023-04-21T15:46:38.696Z,1.85
2023-04-21T15:49:05.895Z,2.40
2023-04-21T15:51:33.424Z,2.00
2023-04-21T15:54:00.665Z,2.13
2023-04-21T15:56:27.976Z,2.50
2023-04-21T15:58:55.317Z,2.20
2023-04-21T16:01:22.791Z,1.90
2023-04-21T16:03:52.909Z,1.77
2023-04-21T16:06:21.411Z,1.85
2023-04-21T16:08:48.826Z,1.33
2023-04-21T16:11:16.164Z,2.00
2023-04-21T16:13:43.419Z,2.10
2023-04-21T16:16:10.619Z,1.80
2023-04-21T16:18:38.046Z,1.80
2023-04-21T16:21:05.344Z,1.60
2023-04-21T16:23:32.597Z,1.70
2023-04-21T16:25:59.932Z,1.80
2023-04-21T16:28:27.277Z,2.03
2023-04-21T16:30:54.521Z,1.92
2023-04-21T16:33:21.703Z,1.90
2023-04-21T16:35:48.999Z,1.70
2023-04-21T16:38:17.269Z,1.95
2023-04-21T16:40:44.531Z,2.20
2023-04-21T16:43:11.659Z,2.33
2023-04-21T16:45:38.900Z,2.03
2023-04-21T16:48:06.356Z,2.40
2023-04-21T16:50:33.779Z,3.03
2023-04-21T16:53:01.266Z,2.13
2023-04-21T16:55:28.667Z,1.90
2023-04-21T16:57:55.899Z,1.90
2023-04-21T17:00:23.163Z,1.98
2023-04-21T17:02:50.606Z,2.05
2023-04-21T17:05:17.989Z,1.95
2023-04-21T17:07:45.193Z,1.83
2023-04-21T17:10:12.399Z,1.90
2023-04-21T17:12:39.610Z,2.03
2023-04-21T17:15:07.480Z,2.00
2023-04-21T17:17:44.845Z,1.92
2023-04-21T17:20:13.285Z,1.92
2023-04-21T17:22:41.112Z,1.95
2023-04-21T17:25:09.154Z,1.95
2023-04-21T17:27:36.981Z,2.00
2023-04-21T17:30:05.076Z,2.40
2023-04-21T17:32:33.992Z,2.70
2023-04-21T17:35:02.001Z,2.35
2023-04-21T17:37:30.414Z,4.25
2023-04-21T17:40:00.375Z,3.67
2023-04-21T17:42:29.277Z,3.67
2023-04-21T17:44:56.399Z,2.90
2023-04-21T17:47:23.655Z,2.75
2023-04-21T17:49:50.947Z,2.70
2023-04-21T17:52:18.181Z,2.50
2023-04-21T17:54:46.133Z,2.95
2023-04-21T17:57:13.345Z,2.45
2023-04-21T17:59:40.707Z,2.40
2023-04-21T18:02:08.268Z,2.47
2023-04-21T18:04:36.307Z,2.80
2023-04-21T18:07:03.689Z,2.58
2023-04-21T18:09:31.649Z,2.58
2023-04-21T18:11:59.197Z,2.80
2023-04-21T18:14:26.941Z,3.08
2023-04-21T18:16:54.605Z,3.10
2023-04-21T18:19:21.925Z,2.60
2023-04-21T18:21:49.150Z,2.92
2023-04-21T18:24:16.390Z,2.58
2023-04-21T18:26:43.952Z,2.30
2023-04-21T18:29:11.105Z,2.60
2023-04-21T18:31:38.330Z,3.42
2023-04-21T18:34:06.181Z,2.95
2023-04-21T18:36:38.276Z,3.45
2023-04-21T18:39:05.814Z,4.03
2023-04-21T18:41:33.784Z,4.00
2023-04-21T18:44:00.926Z,5.53
2023-04-21T18:46:28.102Z,5.80
2023-04-21T18:48:55.479Z,6.05
2023-04-21T18:51:22.707Z,6.38
2023-04-21T18:53:49.975Z,5.07
2023-04-21T18:56:17.161Z,4.85
2023-04-21T18:58:44.362Z,4.13
2023-04-21T19:01:11.556Z,5.43
2023-04-21T19:03:38.853Z,6.55
2023-04-21T19:06:06.577Z,6.53
2023-04-21T19:08:41.999Z,4.70
2023-04-21T19:11:11.050Z,5.45
2023-04-21T19:13:38.265Z,6.35
2023-04-21T19:16:05.528Z,6.70
2023-04-21T19:18:32.860Z,5.90
2023-04-21T19:21:00.533Z,6.70
2023-04-21T19:23:27.669Z,6.55
2023-04-21T19:25:57.434Z,6.72
2023-04-21T19:28:24.761Z,8.35
2023-04-21T19:30:52.109Z,9.68
2023-04-21T19:33:19.353Z,12.40
2023-04-21T19:35:46.551Z,10.45
2023-04-21T19:38:13.774Z,8.73
2023-04-21T19:40:44.359Z,7.28
2023-04-21T19:43:12.788Z,7.40
2023-04-21T19:45:39.996Z,7.55
2023-04-21T19:48:07.788Z,6.35
2023-04-21T19:50:35.866Z,6.32
2023-04-21T19:53:03.361Z,5.78
2023-04-21T19:55:30.656Z,6.25
2023-04-21T19:57:58.380Z,4.90
2023-04-21T20:00:26.382Z,5.43
2023-04-21T20:02:53.785Z,5.28
2023-04-21T20:05:21.348Z,5.32
2023-04-21T20:07:48.919Z,5.25
2023-04-21T20:10:16.208Z,6.15
2023-04-21T20:12:43.427Z,5.40
2023-04-21T20:15:13.080Z,6.50
2023-04-21T20:17:41.792Z,5.70
2023-04-21T20:20:09.605Z,6.55
2023-04-21T20:22:37.032Z,6.43
2023-04-21T20:25:04.350Z,5.93
2023-04-21T20:27:31.692Z,5.82
2023-04-21T20:29:58.877Z,5.47
2023-04-21T20:32:26.158Z,5.43
2023-04-21T20:34:53.460Z,5.30
2023-04-21T20:37:23.083Z,5.13
2023-04-21T20:39:50.329Z,5.05
2023-04-21T20:42:19.228Z,5.90
2023-04-21T20:44:47.255Z,5.70
2023-04-21T20:47:14.651Z,5.90
2023-04-21T20:49:43.555Z,5.82
2023-04-21T20:52:10.981Z,5.80
2023-04-21T20:54:38.298Z,5.97
2023-04-21T20:57:07.585Z,5.40
2023-04-21T20:59:35.233Z,5.60
2023-04-21T21:02:02.677Z,5.80
2023-04-21T21:04:29.937Z,5.03
2023-04-21T21:06:57.132Z,5.55
2023-04-21T21:09:24.290Z,5.53
2023-04-21T21:11:51.554Z,5.50
2023-04-21T21:14:18.811Z,4.90
2023-04-21T21:16:46.030Z,5.38
2023-04-21T21:19:13.224Z,5.78
2023-04-21T21:21:40.401Z,5.13
2023-04-21T21:24:07.696Z,5.55
2023-04-21T21:26:34.878Z,5.03
2023-04-21T21:29:02.201Z,5.63
2023-04-21T21:31:29.673Z,5.75
2023-04-21T21:33:58.166Z,6.20
2023-04-21T21:36:26.001Z,5.60
2023-04-21T21:38:53.165Z,5.40
2023-04-21T21:41:20.364Z,5.40
2023-04-21T21:43:47.732Z,5.72
2023-04-21T21:46:15.190Z,5.47
2023-04-21T21:48:42.918Z,5.30
2023-04-21T21:51:10.164Z,5.50
2023-04-21T21:53:37.457Z,6.13
2023-04-21T21:56:04.736Z,4.95
2023-04-21T21:58:31.961Z,5.78
2023-04-21T22:00:59.474Z,5.13
2023-04-21T22:03:27.300Z,6.10
2023-04-21T22:05:54.600Z,5.65
2023-04-21T22:08:22.099Z,5.70
2023-04-21T22:10:49.355Z,5.53
2023-04-21T22:13:16.558Z,5.80
2023-04-21T22:15:43.765Z,6.65
2023-04-21T22:18:11.230Z,6.55
2023-04-21T22:20:38.553Z,6.32
2023-04-21T22:23:05.784Z,6.10
2023-04-21T22:25:33.017Z,6.28
2023-04-21T22:28:00.224Z,6.43
2023-04-21T22:30:27.438Z,6.10
2023-04-21T22:32:54.672Z,5.95
2023-04-21T22:35:22.184Z,6.00
2023-04-21T22:37:49.378Z,6.32
2023-04-21T22:40:16.548Z,5.97
2023-04-21T22:42:43.783Z,6.47
2023-04-21T22:45:11.185Z,6.13
2023-04-21T22:47:38.468Z,6.05
2023-04-21T22:50:05.886Z,5.72
2023-04-21T22:52:33.156Z,6.28
2023-04-21T22:55:00.302Z,6.35
2023-04-21T22:57:27.499Z,6.65
2023-04-21T22:59:54.681Z,6.10
2023-04-21T23:02:22.065Z,6.10
2023-04-21T23:04:49.258Z,5.82
2023-04-21T23:07:16.456Z,6.40
2023-04-21T23:09:43.684Z,5.78
2023-04-21T23:12:10.922Z,6.13
2023-04-21T23:14:38.206Z,6.38
2023-04-21T23:17:05.552Z,6.15
2023-04-21T23:19:32.654Z,6.10
2023-04-21T23:22:00.034Z,6.30
2023-04-21T23:24:27.294Z,5.82
2023-04-21T23:26:54.560Z,5.85
2023-04-21T23:29:21.736Z,6.32
2023-04-21T23:31:48.940Z,6.25
2023-04-21T23:34:16.231Z,6.45
2023-04-21T23:36:43.405Z,6.60
2023-04-21T23:39:11.422Z,6.10
2023-04-21T23:41:38.834Z,6.03
2023-04-21T23:44:06.326Z,6.10
2023-04-21T23:46:33.696Z,6.45
2023-04-21T23:49:00.962Z,6.22
2023-04-21T23:51:28.755Z,6.30
2023-04-21T23:53:55.972Z,6.13
2023-04-21T23:56:23.237Z,6.05
2023-04-21T23:58:50.387Z,6.78
